Time;durP1;ratioP1;P1;durP2;ratioP2;P2;SDS_P1;SDS_P2;PMS_P1;PMS_P2;Temp;Humidity;BMP_temperature;BMP_pressure;BME280_temperature;BME280_humidity;BME280_pressure;Samples;Min_cycle;Max_cycle;Signal;HPM_P1;HPM_P2
2021/05/13 00:00:44;;;;;;;;;;;19.40;63.80;;;;;;5066155;22;2571;-64
2021/05/13 00:03:10;;;;;;;;;;;19.40;63.80;;;;;;5068380;28;1597;-64
2021/05/13 00:05:35;;;;;;;;;;;19.40;63.80;;;;;;5041642;28;1702;-64
2021/05/13 00:08:01;;;;;;;;;;;19.40;63.80;;;;;;5041825;28;1140;-64
2021/05/13 00:10:28;;;;;;;;;;;19.40;63.80;;;;;;5060133;28;1905;-66
2021/05/13 00:13:04;;;;;;;;;;;19.40;63.90;;;;;;5041156;28;1262;-64
2021/05/13 00:15:33;;;;;;;;;;;19.40;63.90;;;;;;5057174;28;1172;-64
2021/05/13 00:17:58;;;;;;;;;;;19.40;63.90;;;;;;5059712;28;1262;-64
2021/05/13 00:20:25;;;;;;;;;;;19.40;63.90;;;;;;5039855;28;1421;-65
2021/05/13 00:22:50;;;;;;;;;;;19.40;63.90;;;;;;5034315;28;1385;-64
2021/05/13 00:25:16;;;;;;;;;;;19.40;63.90;;;;;;5051650;28;1757;-64
2021/05/13 00:27:42;;;;;;;;;;;19.40;64.20;;;;;;5051888;28;1370;-64
2021/05/13 00:30:08;;;;;;;;;;;19.40;64.00;;;;;;5052292;28;1267;-64
2021/05/13 00:32:36;;;;;;;;;;;19.40;64.00;;;;;;5034399;28;1906;-65
2021/05/13 00:35:02;;;;;;;;;;;19.40;64.00;;;;;;5034384;28;1393;-65
2021/05/13 00:37:27;;;;;;;;;;;19.40;64.00;;;;;;5051487;28;1378;-65
2021/05/13 00:39:52;;;;;;;;;;;19.40;64.00;;;;;;5051951;28;1684;-64
2021/05/13 00:42:18;;;;;;;;;;;19.40;64.00;;;;;;5052156;28;1689;-64
2021/05/13 00:44:44;;;;;;;;;;;19.40;64.00;;;;;;5052056;28;1364;-64
2021/05/13 00:47:12;;;;;;;;;;;19.40;64.00;;;;;;5051119;28;1351;-64
2021/05/13 00:49:38;;;;;;;;;;;19.40;64.00;;;;;;5052165;28;1622;-65
2021/05/13 00:52:03;;;;;;;;;;;19.40;64.10;;;;;;5034104;28;1894;-65
2021/05/13 00:54:29;;;;;;;;;;;19.40;64.00;;;;;;5052038;28;1353;-64
2021/05/13 00:56:54;;;;;;;;;;;19.30;64.00;;;;;;5051048;28;1441;-64
2021/05/13 00:59:24;;;;;;;;;;;19.40;64.00;;;;;;5051785;28;1246;-65
2021/05/13 01:01:49;;;;;;;;;;;19.40;64.10;;;;;;5051543;28;1663;-64
2021/05/13 01:04:15;;;;;;;;;;;19.40;64.00;;;;;;5052020;28;1402;-64
2021/05/13 01:06:41;;;;;;;;;;;19.40;64.10;;;;;;5033300;28;1377;-65
2021/05/13 01:09:10;;;;;;;;;;;19.30;64.00;;;;;;5033950;28;1435;-65
2021/05/13 01:11:38;;;;;;;;;;;19.30;64.00;;;;;;5051456;28;1918;-64
2021/05/13 01:14:29;;;;;;;;;;;19.40;64.10;;;;;;5036300;28;1396;-64
2021/05/13 01:16:52;;;;;;;;;;;19.30;64.00;;;;;;5054128;28;1345;-64
2021/05/13 01:19:18;;;;;;;;;;;19.30;64.00;;;;;;5017950;28;1226;-64
2021/05/13 01:21:43;;;;;;;;;;;19.30;64.10;;;;;;5036381;28;1387;-65
2021/05/13 01:24:09;;;;;;;;;;;19.30;64.00;;;;;;5055072;28;1484;-65
2021/05/13 01:26:34;;;;;;;;;;;19.30;64.00;;;;;;5036350;28;1530;-66
2021/05/13 01:29:00;;;;;;;;;;;19.30;64.10;;;;;;5055422;28;1676;-64
2021/05/13 01:31:28;;;;;;;;;;;19.30;64.10;;;;;;5054856;28;1901;-65
2021/05/13 01:33:54;;;;;;;;;;;19.30;64.10;;;;;;5055515;28;1704;-65
2021/05/13 01:36:19;;;;;;;;;;;19.30;64.10;;;;;;5054401;28;1434;-65
2021/05/13 01:38:44;;;;;;;;;;;19.30;64.10;;;;;;5036952;28;1694;-65
2021/05/13 01:41:10;;;;;;;;;;;19.30;64.10;;;;;;5054395;28;1323;-65
2021/05/13 01:43:35;;;;;;;;;;;19.30;64.10;;;;;;5037146;28;1368;-64
2021/05/13 01:46:01;;;;;;;;;;;19.30;64.10;;;;;;5036221;28;1459;-64
2021/05/13 01:48:27;;;;;;;;;;;19.30;64.10;;;;;;5054865;28;1068;-65
2021/05/13 01:50:52;;;;;;;;;;;19.30;64.10;;;;;;5036692;28;1894;-64
2021/05/13 01:53:18;;;;;;;;;;;19.30;64.20;;;;;;5036635;28;1486;-65
2021/05/13 01:55:43;;;;;;;;;;;19.30;64.20;;;;;;5036290;28;1358;-65
2021/05/13 01:58:09;;;;;;;;;;;19.30;64.20;;;;;;5054523;28;1443;-65
2021/05/13 02:00:34;;;;;;;;;;;19.30;64.10;;;;;;5054460;28;1365;-65
2021/05/13 02:03:00;;;;;;;;;;;19.30;64.20;;;;;;5054332;28;1960;-64
2021/05/13 02:05:25;;;;;;;;;;;19.30;64.20;;;;;;5053768;28;1639;-65
2021/05/13 02:07:51;;;;;;;;;;;19.30;64.20;;;;;;5054422;28;1613;-65
2021/05/13 02:10:16;;;;;;;;;;;19.30;64.20;;;;;;5054419;28;1418;-65
2021/05/13 02:12:42;;;;;;;;;;;19.30;64.20;;;;;;5036488;28;1910;-65
2021/05/13 02:15:08;;;;;;;;;;;19.30;64.30;;;;;;5036198;28;1528;-65
2021/05/13 02:17:34;;;;;;;;;;;19.30;64.20;;;;;;5053863;28;1370;-65
2021/05/13 02:19:59;;;;;;;;;;;19.30;64.20;;;;;;5054350;28;1693;-65
2021/05/13 02:22:24;;;;;;;;;;;19.30;64.20;;;;;;5054447;28;1457;-66
2021/05/13 02:24:50;;;;;;;;;;;19.30;64.20;;;;;;5053810;28;1655;-64
2021/05/13 02:27:15;;;;;;;;;;;19.30;64.20;;;;;;5053842;28;1202;-65
2021/05/13 02:29:41;;;;;;;;;;;19.30;64.20;;;;;;5054416;28;1263;-66
2021/05/13 02:32:06;;;;;;;;;;;19.30;64.20;;;;;;5054050;28;1930;-65
2021/05/13 02:34:32;;;;;;;;;;;19.30;64.20;;;;;;5053799;28;1404;-64
2021/05/13 02:36:57;;;;;;;;;;;19.30;64.20;;;;;;5053137;28;1429;-64
2021/05/13 02:39:25;;;;;;;;;;;19.30;64.20;;;;;;5036289;28;1189;-64
2021/05/13 02:41:51;;;;;;;;;;;19.30;64.20;;;;;;5053272;28;1585;-64
2021/05/13 02:44:16;;;;;;;;;;;19.30;64.20;;;;;;5035982;28;1761;-66
2021/05/13 02:46:42;;;;;;;;;;;19.30;64.20;;;;;;5052997;28;1464;-65
2021/05/13 02:49:07;;;;;;;;;;;19.30;64.20;;;;;;5053896;28;1640;-64
2021/05/13 02:51:32;;;;;;;;;;;19.30;64.20;;;;;;5035659;28;1906;-66
2021/05/13 02:53:58;;;;;;;;;;;19.30;64.20;;;;;;5053572;28;1445;-65
2021/05/13 02:56:23;;;;;;;;;;;19.30;64.20;;;;;;5052528;28;1671;-64
2021/05/13 02:58:50;;;;;;;;;;;19.30;64.20;;;;;;5053219;28;1356;-65
2021/05/13 03:01:25;;;;;;;;;;;19.30;64.20;;;;;;5053171;28;1777;-64
2021/05/13 03:03:51;;;;;;;;;;;19.30;64.20;;;;;;5053452;28;1357;-65
2021/05/13 03:06:17;;;;;;;;;;;19.30;64.30;;;;;;5035641;28;1195;-64
2021/05/13 03:08:42;;;;;;;;;;;19.30;64.20;;;;;;5034759;28;1704;-65
2021/05/13 03:11:08;;;;;;;;;;;19.30;64.30;;;;;;5052221;28;1910;-65
2021/05/13 03:13:34;;;;;;;;;;;19.30;64.30;;;;;;5035148;28;1383;-65
2021/05/13 03:16:00;;;;;;;;;;;19.30;64.20;;;;;;5052763;28;1401;-65
2021/05/13 03:18:28;;;;;;;;;;;19.30;64.20;;;;;;5053206;28;1174;-65
2021/05/13 03:21:06;;;;;;;;;;;19.30;64.30;;;;;;5015603;28;1469;-65
2021/05/13 03:23:42;;;;;;;;;;;19.30;64.30;;;;;;5048418;28;1382;-67
2021/05/13 03:26:08;;;;;;;;;;;19.30;64.30;;;;;;5052374;28;1174;-65
2021/05/13 03:28:33;;;;;;;;;;;19.30;64.30;;;;;;5052962;28;1430;-65
2021/05/13 03:30:59;;;;;;;;;;;19.30;64.30;;;;;;5052629;28;1967;-65
2021/05/13 03:33:24;;;;;;;;;;;19.30;64.30;;;;;;5052870;28;1479;-65
2021/05/13 03:35:50;;;;;;;;;;;19.30;64.30;;;;;;5051699;28;1396;-65
2021/05/13 03:38:15;;;;;;;;;;;19.30;65.00;;;;;;5034483;28;1307;-65
2021/05/13 03:40:41;;;;;;;;;;;19.30;64.20;;;;;;5034787;28;1693;-65
2021/05/13 03:43:06;;;;;;;;;;;19.30;64.20;;;;;;5052755;28;1702;-65
2021/05/13 03:45:32;;;;;;;;;;;19.30;64.10;;;;;;5034754;28;1362;-64
2021/05/13 03:48:02;;;;;;;;;;;19.30;64.10;;;;;;5032447;28;1458;-64
2021/05/13 03:50:27;;;;;;;;;;;19.30;64.00;;;;;;5042262;28;1384;-64
2021/05/13 03:52:53;;;;;;;;;;;19.30;63.90;;;;;;5034520;28;1949;-65
2021/05/13 03:55:18;;;;;;;;;;;19.30;63.90;;;;;;5051924;28;1366;-65
2021/05/13 03:57:44;;;;;;;;;;;19.30;63.80;;;;;;5052406;28;1198;-65
2021/05/13 04:00:12;;;;;;;;;;;19.40;64.30;;;;;;5052014;28;1653;-65
2021/05/13 04:02:37;;;;;;;;;;;19.40;63.80;;;;;;5052493;28;1474;-65
2021/05/13 04:05:03;;;;;;;;;;;19.40;63.70;;;;;;5051984;28;1304;-65
2021/05/13 04:07:32;;;;;;;;;;;19.40;63.70;;;;;;5033762;28;1392;-66
2021/05/13 04:09:57;;;;;;;;;;;19.40;63.70;;;;;;5018062;28;1692;-65
2021/05/13 04:12:23;;;;;;;;;;;19.40;63.60;;;;;;5052575;28;1969;-66
2021/05/13 04:14:49;;;;;;;;;;;19.40;63.60;;;;;;5034684;28;1496;-66
2021/05/13 04:17:14;;;;;;;;;;;19.40;63.60;;;;;;5033717;28;1408;-65
2021/05/13 04:19:40;;;;;;;;;;;19.40;63.60;;;;;;5034457;28;1249;-66
2021/05/13 04:22:05;;;;;;;;;;;19.40;63.50;;;;;;5052392;28;1638;-66
2021/05/13 04:24:31;;;;;;;;;;;19.40;63.50;;;;;;5034541;28;1494;-65
2021/05/13 04:26:56;;;;;;;;;;;19.40;63.50;;;;;;5033669;28;1429;-66
2021/05/13 04:29:21;;;;;;;;;;;19.40;63.50;;;;;;5052638;28;1617;-66
2021/05/13 04:31:47;;;;;;;;;;;19.40;63.50;;;;;;5051863;28;1914;-65
2021/05/13 04:34:12;;;;;;;;;;;19.50;63.50;;;;;;5052333;28;1300;-64
2021/05/13 04:36:38;;;;;;;;;;;19.40;63.40;;;;;;5033588;28;1391;-65
2021/05/13 04:39:04;;;;;;;;;;;19.50;63.50;;;;;;5051898;28;1367;-64
2021/05/13 04:41:31;;;;;;;;;;;19.40;63.40;;;;;;5034029;28;1311;-64
2021/05/13 04:43:57;;;;;;;;;;;19.50;63.50;;;;;;5051955;28;1465;-64
2021/05/13 04:46:25;;;;;;;;;;;19.50;63.40;;;;;;5034370;28;1691;-64
2021/05/13 04:51:34;;;;;;;;;;;19.50;63.40;;;;;;5056228;28;1898;-64
2021/05/13 04:53:59;;;;;;;;;;;19.50;63.50;;;;;;5055626;28;1624;-64
2021/05/13 04:56:25;;;;;;;;;;;19.50;63.40;;;;;;5055184;28;1454;-65
2021/05/13 04:58:50;;;;;;;;;;;19.50;63.40;;;;;;5055645;28;1427;-65
2021/05/13 05:01:16;;;;;;;;;;;19.50;63.40;;;;;;5055425;28;1418;-65
2021/05/13 05:03:41;;;;;;;;;;;19.50;63.40;;;;;;5037563;28;1001;-65
2021/05/13 05:06:07;;;;;;;;;;;19.50;63.40;;;;;;5037318;28;1432;-66
2021/05/13 05:08:32;;;;;;;;;;;19.50;63.40;;;;;;5037717;28;1187;-65
2021/05/13 05:10:58;;;;;;;;;;;19.50;63.40;;;;;;5055673;28;1988;-65
2021/05/13 05:13:23;;;;;;;;;;;19.50;63.40;;;;;;5055182;28;1670;-65
2021/05/13 05:15:48;;;;;;;;;;;19.50;63.40;;;;;;5054365;28;1288;-65
2021/05/13 05:18:21;;;;;;;;;;;19.50;63.40;;;;;;5055271;28;1444;-65
2021/05/13 05:20:46;;;;;;;;;;;19.50;63.40;;;;;;5055275;28;1339;-65
2021/05/13 05:23:12;;;;;;;;;;;19.50;63.40;;;;;;5037577;28;1394;-66
2021/05/13 05:25:38;;;;;;;;;;;19.50;63.30;;;;;;5054526;28;1450;-66
2021/05/13 05:28:04;;;;;;;;;;;19.50;63.30;;;;;;5055199;28;1287;-65
2021/05/13 05:30:32;;;;;;;;;;;19.50;63.30;;;;;;5055197;28;1485;-65
2021/05/13 05:32:58;;;;;;;;;;;19.50;63.40;;;;;;5054914;28;1174;-65
2021/05/13 05:35:23;;;;;;;;;;;19.50;63.30;;;;;;5036252;28;1688;-64
2021/05/13 05:37:49;;;;;;;;;;;19.50;63.30;;;;;;5055069;28;1373;-66
2021/05/13 05:40:18;;;;;;;;;;;19.50;63.30;;;;;;5055250;28;1672;-65
2021/05/13 05:42:44;;;;;;;;;;;19.50;63.30;;;;;;5054703;28;1185;-64
2021/05/13 05:45:09;;;;;;;;;;;19.50;63.30;;;;;;5054366;28;1424;-65
2021/05/13 05:47:35;;;;;;;;;;;19.50;63.30;;;;;;5054594;28;1648;-65
2021/05/13 05:50:00;;;;;;;;;;;19.50;63.30;;;;;;5054541;28;1657;-65
2021/05/13 05:52:26;;;;;;;;;;;19.50;63.30;;;;;;5054614;28;1898;-64
2021/05/13 05:54:51;;;;;;;;;;;19.50;63.30;;;;;;5054833;28;1170;-65
2021/05/13 05:57:17;;;;;;;;;;;19.50;63.30;;;;;;5054860;28;1661;-66
2021/05/13 05:59:42;;;;;;;;;;;19.50;63.30;;;;;;5035205;28;1655;-65
2021/05/13 06:02:07;;;;;;;;;;;19.50;63.30;;;;;;5076622;22;3522;-69
2021/05/13 06:04:33;;;;;;;;;;;19.50;63.30;;;;;;5053424;28;1409;-70
2021/05/13 06:06:59;;;;;;;;;;;19.50;63.30;;;;;;5053941;28;1142;-68
2021/05/13 06:09:24;;;;;;;;;;;19.50;63.30;;;;;;5054585;28;1555;-69
2021/05/13 06:11:50;;;;;;;;;;;19.50;63.30;;;;;;5054052;28;1913;-69
2021/05/13 06:14:15;;;;;;;;;;;19.50;63.30;;;;;;5054129;28;1154;-69
2021/05/13 06:16:40;;;;;;;;;;;19.50;63.20;;;;;;5041387;28;1122;-70
2021/05/13 06:19:06;;;;;;;;;;;19.50;63.30;;;;;;5033607;28;1730;-68
2021/05/13 06:21:33;;;;;;;;;;;19.50;63.30;;;;;;5039497;28;1476;-68
2021/05/13 06:24:00;;;;;;;;;;;19.50;63.30;;;;;;5034156;28;1443;-69
2021/05/13 06:26:33;;;;;;;;;;;19.50;63.20;;;;;;5030287;28;2004;-71
2021/05/13 06:28:58;;;;;;;;;;;19.50;63.30;;;;;;5043815;28;1492;-69
2021/05/13 06:31:23;;;;;;;;;;;19.50;63.30;;;;;;5045114;28;1902;-69
2021/05/13 06:33:49;;;;;;;;;;;19.50;63.30;;;;;;5044157;28;1630;-68
2021/05/13 06:36:15;;;;;;;;;;;19.50;63.30;;;;;;5032156;28;1556;-69
2021/05/13 06:38:40;;;;;;;;;;;19.50;63.30;;;;;;5039340;28;1413;-69
2021/05/13 06:41:07;;;;;;;;;;;19.50;63.20;;;;;;5049447;28;1818;-68
2021/05/13 06:43:33;;;;;;;;;;;19.50;63.30;;;;;;5052665;28;1610;-71
2021/05/13 06:45:58;;;;;;;;;;;19.50;63.30;;;;;;5051037;28;1146;-71
2021/05/13 06:48:24;;;;;;;;;;;19.50;63.20;;;;;;5051929;28;1296;-71
2021/05/13 06:50:49;;;;;;;;;;;19.50;63.20;;;;;;5052903;28;1898;-69
2021/05/13 06:53:15;;;;;;;;;;;19.50;63.30;;;;;;5052641;28;1743;-72
2021/05/13 06:55:40;;;;;;;;;;;19.50;63.30;;;;;;5039560;28;1011;-73
2021/05/13 06:58:05;;;;;;;;;;;19.50;63.30;;;;;;5032913;28;1676;-69
2021/05/13 07:00:31;;;;;;;;;;;19.50;63.30;;;;;;5033036;28;1365;-69
2021/05/13 07:02:56;;;;;;;;;;;19.50;63.30;;;;;;5044372;28;1735;-68
2021/05/13 07:05:22;;;;;;;;;;;19.50;63.20;;;;;;5031760;28;1384;-69
2021/05/13 07:07:47;;;;;;;;;;;19.50;63.20;;;;;;5033625;28;1424;-68
2021/05/13 07:10:13;;;;;;;;;;;19.60;63.30;;;;;;5033583;28;1507;-68
2021/05/13 07:12:39;;;;;;;;;;;19.50;63.20;;;;;;5029390;28;1973;-68
2021/05/13 07:15:05;;;;;;;;;;;19.50;63.20;;;;;;5051215;28;2334;-68
2021/05/13 07:17:30;;;;;;;;;;;19.50;63.20;;;;;;5032614;28;1655;-68
2021/05/13 07:19:55;;;;;;;;;;;19.60;63.20;;;;;;5037056;28;1634;-68
2021/05/13 07:22:21;;;;;;;;;;;19.60;63.30;;;;;;5033420;28;1708;-69
2021/05/13 07:24:48;;;;;;;;;;;19.60;63.30;;;;;;5032676;28;1653;-69
2021/05/13 07:27:14;;;;;;;;;;;19.60;63.30;;;;;;5031432;28;1340;-69
2021/05/13 07:29:39;;;;;;;;;;;19.60;63.30;;;;;;5032719;28;1288;-69
2021/05/13 07:32:05;;;;;;;;;;;19.60;63.20;;;;;;5032700;28;1955;-70
2021/05/13 07:34:30;;;;;;;;;;;19.60;63.20;;;;;;5032534;28;1598;-69
2021/05/13 07:36:55;;;;;;;;;;;19.60;63.20;;;;;;5031710;28;1727;-69
2021/05/13 07:39:22;;;;;;;;;;;19.60;63.20;;;;;;5032457;28;1193;-69
2021/05/13 07:41:47;;;;;;;;;;;19.60;63.20;;;;;;5032784;28;1318;-69
2021/05/13 07:44:12;;;;;;;;;;;19.60;63.20;;;;;;5031891;28;1685;-69
2021/05/13 07:46:39;;;;;;;;;;;19.60;63.20;;;;;;5032029;28;1957;-69
2021/05/13 07:49:05;;;;;;;;;;;19.50;63.20;;;;;;5032786;28;1584;-69
2021/05/13 07:51:32;;;;;;;;;;;19.60;63.20;;;;;;5032696;28;1887;-68
2021/05/13 07:53:57;;;;;;;;;;;19.60;63.20;;;;;;5032062;28;1640;-69
2021/05/13 07:56:23;;;;;;;;;;;19.60;63.20;;;;;;5032584;28;1510;-68
2021/05/13 07:58:48;;;;;;;;;;;19.60;63.20;;;;;;5032738;28;1703;-68
2021/05/13 08:01:13;;;;;;;;;;;19.50;63.10;;;;;;5035632;28;1476;-68
2021/05/13 08:03:39;;;;;;;;;;;19.60;63.20;;;;;;5039633;28;1092;-68
2021/05/13 08:06:05;;;;;;;;;;;19.60;63.20;;;;;;5031248;28;1414;-68
2021/05/13 08:08:30;;;;;;;;;;;19.60;63.20;;;;;;5035601;28;1384;-68
2021/05/13 08:10:55;;;;;;;;;;;19.60;63.20;;;;;;5038220;28;2001;-69
2021/05/13 08:13:21;;;;;;;;;;;19.60;63.10;;;;;;5037383;28;1192;-69
2021/05/13 08:15:46;;;;;;;;;;;19.60;63.10;;;;;;5038692;28;1423;-69
2021/05/13 08:18:12;;;;;;;;;;;19.60;63.10;;;;;;5041114;28;1295;-68
2021/05/13 08:20:37;;;;;;;;;;;19.50;63.10;;;;;;5041527;28;1594;-68
2021/05/13 08:23:02;;;;;;;;;;;19.60;63.10;;;;;;5040624;28;1331;-69
2021/05/13 08:25:28;;;;;;;;;;;19.60;63.10;;;;;;5039365;28;1192;-68
2021/05/13 08:27:53;;;;;;;;;;;19.60;63.00;;;;;;5035747;28;1088;-68
2021/05/13 08:30:19;;;;;;;;;;;19.60;63.10;;;;;;5035617;28;1119;-68
2021/05/13 08:32:45;;;;;;;;;;;19.60;63.00;;;;;;5034687;28;1902;-68
2021/05/13 08:35:10;;;;;;;;;;;19.60;63.00;;;;;;5035314;28;1671;-69
2021/05/13 08:37:36;;;;;;;;;;;19.60;63.00;;;;;;5035339;28;1375;-68
2021/05/13 08:40:01;;;;;;;;;;;19.60;63.00;;;;;;5036105;28;1439;-69
2021/05/13 08:42:27;;;;;;;;;;;19.60;63.00;;;;;;5036222;28;1680;-69
2021/05/13 08:44:52;;;;;;;;;;;19.60;63.00;;;;;;5036011;28;1607;-68
2021/05/13 08:47:17;;;;;;;;;;;19.60;63.00;;;;;;5035071;28;1364;-68
2021/05/13 08:49:46;;;;;;;;;;;19.60;63.00;;;;;;5036125;28;1708;-69
2021/05/13 08:52:11;;;;;;;;;;;19.60;63.00;;;;;;5036046;28;1887;-70
2021/05/13 08:54:52;;;;;;;;;;;19.60;63.00;;;;;;5036155;28;1640;-70
2021/05/13 08:57:18;;;;;;;;;;;19.60;63.00;;;;;;5034068;28;1652;-69
2021/05/13 08:59:43;;;;;;;;;;;19.60;63.00;;;;;;5034473;28;1350;-70
2021/05/13 09:02:09;;;;;;;;;;;19.60;62.90;;;;;;5046767;28;1668;-69
2021/05/13 09:04:38;;;;;;;;;;;19.60;62.90;;;;;;5036769;28;1692;-69
2021/05/13 09:07:17;;;;;;;;;;;19.60;62.90;;;;;;5035173;28;1599;-69
2021/05/13 09:10:02;;;;;;;;;;;19.60;62.90;;;;;;5043978;28;1520;-68
2021/05/13 09:12:46;;;;;;;;;;;19.60;62.90;;;;;;5055496;28;1977;-68
2021/05/13 09:15:14;;;;;;;;;;;19.60;62.90;;;;;;5053117;28;1550;-69
2021/05/13 09:17:43;;;;;;;;;;;19.60;62.90;;;;;;5035628;28;1059;-69
2021/05/13 09:20:29;;;;;;;;;;;19.60;62.90;;;;;;5039371;28;1902;-70
2021/05/13 09:23:15;;;;;;;;;;;19.60;62.90;;;;;;5034907;28;1657;-70
2021/05/13 09:25:44;;;;;;;;;;;19.60;62.90;;;;;;5033898;28;1620;-70
2021/05/13 09:28:10;;;;;;;;;;;19.60;62.90;;;;;;5035292;28;1705;-70
2021/05/13 09:30:35;;;;;;;;;;;19.60;62.90;;;;;;5034401;28;1303;-70
2021/05/13 09:33:01;;;;;;;;;;;19.60;62.90;;;;;;5033980;28;1902;-70
2021/05/13 09:35:31;;;;;;;;;;;19.70;63.00;;;;;;5033254;28;1634;-70
2021/05/13 09:38:07;;;;;;;;;;;19.60;62.90;;;;;;5034880;28;1471;-70
2021/05/13 09:40:42;;;;;;;;;;;19.70;63.00;;;;;;5034006;28;1388;-69
2021/05/13 09:43:19;;;;;;;;;;;19.60;62.90;;;;;;5035116;28;1685;-69
2021/05/13 09:45:45;;;;;;;;;;;19.60;62.90;;;;;;5033113;28;1597;-69
2021/05/13 09:48:10;;;;;;;;;;;19.60;63.70;;;;;;5035044;28;1634;-69
2021/05/13 09:50:36;;;;;;;;;;;19.60;63.00;;;;;;5033712;28;1377;-69
2021/05/13 09:53:03;;;;;;;;;;;19.60;62.90;;;;;;5040581;28;1979;-72
2021/05/13 09:55:29;;;;;;;;;;;19.60;62.90;;;;;;5050367;28;1878;-72
2021/05/13 09:57:56;;;;;;;;;;;19.60;62.90;;;;;;5046664;28;1628;-72
2021/05/13 10:00:32;;;;;;;;;;;19.70;63.00;;;;;;5047736;28;1513;-72
2021/05/13 10:02:57;;;;;;;;;;;19.70;63.00;;;;;;5046659;28;1671;-72
2021/05/13 10:05:23;;;;;;;;;;;19.70;63.00;;;;;;5032484;28;1383;-72
2021/05/13 10:07:48;;;;;;;;;;;19.60;63.70;;;;;;5034877;28;1337;-72
2021/05/13 10:10:14;;;;;;;;;;;19.70;63.00;;;;;;5034566;28;1320;-72
2021/05/13 10:12:39;;;;;;;;;;;19.60;62.90;;;;;;5034480;28;1969;-72
2021/05/13 10:15:05;;;;;;;;;;;19.70;63.00;;;;;;5046767;28;1531;-72
2021/05/13 10:17:31;;;;;;;;;;;19.60;63.00;;;;;;5052733;28;1754;-72
2021/05/13 10:19:56;;;;;;;;;;;19.60;63.00;;;;;;5052992;28;1428;-72
2021/05/13 10:22:22;;;;;;;;;;;19.60;62.90;;;;;;5033932;28;1605;-72
2021/05/13 10:24:49;;;;;;;;;;;19.70;63.00;;;;;;5032832;28;1693;-73
2021/05/13 10:27:16;;;;;;;;;;;19.60;62.90;;;;;;5037611;28;2095;-73
2021/05/13 10:29:41;;;;;;;;;;;19.70;63.00;;;;;;5046857;28;1518;-73
2021/05/13 10:32:21;;;;;;;;;;;19.60;63.00;;;;;;5038605;28;1953;-73
2021/05/13 10:34:57;;;;;;;;;;;19.70;63.00;;;;;;5034217;28;1408;-74
2021/05/13 10:37:26;;;;;;;;;;;19.60;63.00;;;;;;5033364;28;1390;-75
2021/05/13 10:40:15;;;;;;;;;;;19.70;63.00;;;;;;5034031;28;1480;-75
2021/05/13 10:42:41;;;;;;;;;;;19.60;63.00;;;;;;5034058;28;1663;-75
2021/05/13 10:45:24;;;;;;;;;;;19.70;63.10;;;;;;5032396;28;1566;-74
2021/05/13 10:48:08;;;;;;;;;;;19.60;63.00;;;;;;5035832;28;1450;-75
2021/05/13 10:50:49;;;;;;;;;;;19.70;63.10;;;;;;5053857;28;1673;-74
2021/05/13 10:53:33;;;;;;;;;;;19.70;63.10;;;;;;5046833;28;1640;-74
2021/05/13 10:56:19;;;;;;;;;;;19.70;63.00;;;;;;5032941;28;1764;-75
2021/05/13 10:59:08;;;;;;;;;;;19.70;63.10;;;;;;5032508;28;1673;-74
2021/05/13 11:01:34;;;;;;;;;;;19.70;63.00;;;;;;5031224;28;1648;-72
2021/05/13 11:04:18;;;;;;;;;;;19.70;63.00;;;;;;5037966;28;1245;-72
2021/05/13 11:06:43;;;;;;;;;;;19.60;63.00;;;;;;5033060;28;1606;-72
2021/05/13 11:09:09;;;;;;;;;;;19.70;63.10;;;;;;5015605;28;1635;-73
2021/05/13 11:11:53;;;;;;;;;;;19.60;63.00;;;;;;5031278;28;1906;-72
2021/05/13 11:14:20;;;;;;;;;;;19.70;63.00;;;;;;5039896;28;1649;-72
2021/05/13 11:16:49;;;;;;;;;;;19.70;63.00;;;;;;5039323;28;1670;-72
2021/05/13 11:19:18;;;;;;;;;;;19.60;62.90;;;;;;5033238;28;1332;-71
2021/05/13 11:21:59;;;;;;;;;;;19.70;63.00;;;;;;5038231;28;1514;-72
2021/05/13 11:24:32;;;;;;;;;;;19.60;63.00;;;;;;5032164;28;1647;-73
2021/05/13 11:26:57;;;;;;;;;;;19.70;63.00;;;;;;5032126;28;1651;-73
2021/05/13 11:29:23;;;;;;;;;;;19.60;62.90;;;;;;5032780;28;1599;-73
2021/05/13 11:31:49;;;;;;;;;;;19.60;62.90;;;;;;5035411;28;2098;-73
2021/05/13 11:34:15;;;;;;;;;;;19.70;63.00;;;;;;5048505;28;1412;-72
2021/05/13 11:36:41;;;;;;;;;;;19.70;63.00;;;;;;5048638;28;1563;-72
2021/05/13 11:39:09;;;;;;;;;;;19.60;63.00;;;;;;5032687;28;1574;-72
2021/05/13 11:41:35;;;;;;;;;;;19.70;63.00;;;;;;5015208;28;1708;-73
2021/05/13 11:44:00;;;;;;;;;;;19.60;63.00;;;;;;5032975;28;1441;-72
2021/05/13 11:46:27;;;;;;;;;;;19.70;63.00;;;;;;5031970;28;1193;-72
2021/05/13 11:48:52;;;;;;;;;;;19.60;63.00;;;;;;5041326;28;1823;-72
2021/05/13 11:51:22;;;;;;;;;;;19.70;63.00;;;;;;5036791;28;1898;-72
2021/05/13 11:53:48;;;;;;;;;;;19.70;63.00;;;;;;5049826;28;1642;-72
2021/05/13 11:56:13;;;;;;;;;;;19.70;63.00;;;;;;5033728;28;1150;-72
2021/05/13 11:58:45;;;;;;;;;;;19.70;63.00;;;;;;5030402;28;1358;-72
2021/05/13 12:01:30;;;;;;;;;;;19.70;63.00;;;;;;5049118;22;2260;-66
2021/05/13 12:03:55;;;;;;;;;;;19.70;63.00;;;;;;5047511;28;1766;-66
2021/05/13 12:06:21;;;;;;;;;;;19.70;63.00;;;;;;5050270;28;1603;-65
2021/05/13 12:08:46;;;;;;;;;;;19.70;62.90;;;;;;5050399;28;1442;-65
2021/05/13 12:11:18;;;;;;;;;;;19.70;62.90;;;;;;5051797;28;1906;-65
2021/05/13 12:13:45;;;;;;;;;;;19.70;62.90;;;;;;5050196;28;1697;-65
2021/05/13 12:16:11;;;;;;;;;;;19.70;62.90;;;;;;5031726;28;1669;-65
2021/05/13 12:18:36;;;;;;;;;;;19.70;62.90;;;;;;5031400;28;1377;-65
2021/05/13 12:21:02;;;;;;;;;;;19.70;62.90;;;;;;5055347;28;1560;-65
2021/05/13 12:23:27;;;;;;;;;;;19.70;62.90;;;;;;5050462;28;1692;-65
2021/05/13 12:25:53;;;;;;;;;;;19.70;62.90;;;;;;5050164;28;1383;-65
2021/05/13 12:28:18;;;;;;;;;;;19.70;62.90;;;;;;5050427;28;1511;-65
2021/05/13 12:30:50;;;;;;;;;;;19.70;62.90;;;;;;5051696;28;1419;-65
2021/05/13 12:33:22;;;;;;;;;;;19.70;62.90;;;;;;5050119;28;1608;-67
2021/05/13 12:35:48;;;;;;;;;;;19.70;62.90;;;;;;5042286;28;1619;-65
2021/05/13 12:38:14;;;;;;;;;;;19.70;62.90;;;;;;5029710;28;2536;-66
2021/05/13 12:40:40;;;;;;;;;;;19.70;62.90;;;;;;5026031;28;1728;-64
2021/05/13 12:43:18;;;;;;;;;;;19.70;62.90;;;;;;5029611;28;2342;-67
2021/05/13 12:45:47;;;;;;;;;;;19.70;62.90;;;;;;5031263;28;1627;-68
2021/05/13 12:48:22;;;;;;;;;;;19.70;62.90;;;;;;5031341;28;1171;-68
2021/05/13 12:51:00;;;;;;;;;;;19.70;62.90;;;;;;5031751;28;1415;-68
2021/05/13 12:53:26;;;;;;;;;;;19.70;62.90;;;;;;5045207;28;2232;-67
2021/05/13 12:55:54;;;;;;;;;;;19.70;62.90;;;;;;5031838;28;1356;-69
2021/05/13 12:58:20;;;;;;;;;;;19.70;62.90;;;;;;5034967;28;1485;-68
2021/05/13 13:00:56;;;;;;;;;;;19.70;62.90;;;;;;5030686;28;1405;-68
2021/05/13 13:03:51;;;;;;;;;;;19.70;62.90;;;;;;5046597;28;1377;-69
2021/05/13 13:06:17;;;;;;;;;;;19.70;62.80;;;;;;5029896;28;1335;-68
2021/05/13 13:08:43;;;;;;;;;;;19.70;62.80;;;;;;5031510;28;1340;-68
2021/05/13 13:11:09;;;;;;;;;;;19.70;62.80;;;;;;5035119;28;1953;-68
2021/05/13 13:13:42;;;;;;;;;;;19.70;62.80;;;;;;5035097;28;1328;-69
2021/05/13 13:16:17;;;;;;;;;;;19.70;62.80;;;;;;5030430;28;1469;-69
2021/05/13 13:18:42;;;;;;;;;;;19.70;62.80;;;;;;5030692;28;1648;-68
2021/05/13 13:21:17;;;;;;;;;;;19.70;62.80;;;;;;5034777;28;1369;-69
2021/05/13 13:23:43;;;;;;;;;;;19.70;62.80;;;;;;5050257;28;1442;-69
2021/05/13 13:26:09;;;;;;;;;;;19.70;62.90;;;;;;5034599;28;1350;-69
2021/05/13 13:28:41;;;;;;;;;;;19.70;62.80;;;;;;5034772;28;1325;-69
2021/05/13 13:31:18;;;;;;;;;;;19.70;62.80;;;;;;5034539;28;1968;-69
2021/05/13 13:33:53;;;;;;;;;;;19.70;62.80;;;;;;5048451;28;1480;-68
2021/05/13 13:36:18;;;;;;;;;;;19.70;62.80;;;;;;5032257;28;1309;-68
2021/05/13 13:38:43;;;;;;;;;;;19.70;62.80;;;;;;5054517;28;1344;-69
2021/05/13 13:41:09;;;;;;;;;;;19.70;62.80;;;;;;5054759;28;1374;-69
2021/05/13 13:43:34;;;;;;;;;;;19.70;62.80;;;;;;5055415;28;1383;-69
2021/05/13 13:46:00;;;;;;;;;;;19.70;62.80;;;;;;5054735;28;1212;-68
2021/05/13 13:48:25;;;;;;;;;;;19.70;62.80;;;;;;5054014;28;1655;-69
2021/05/13 13:50:55;;;;;;;;;;;19.70;62.80;;;;;;5053949;28;1673;-68
2021/05/13 13:53:21;;;;;;;;;;;19.70;62.80;;;;;;5054142;28;1660;-66
2021/05/13 13:55:49;;;;;;;;;;;19.70;62.80;;;;;;5040580;28;1162;-66
2021/05/13 13:58:15;;;;;;;;;;;19.70;62.90;;;;;;5035904;28;2889;-67
2021/05/13 14:00:41;;;;;;;;;;;19.70;62.80;;;;;;5023240;28;1978;-65
2021/05/13 14:03:06;;;;;;;;;;;19.70;62.80;;;;;;5031348;28;2157;-67
2021/05/13 14:05:32;;;;;;;;;;;19.70;62.80;;;;;;5054795;28;1241;-67
2021/05/13 14:07:57;;;;;;;;;;;19.70;62.80;;;;;;5029528;28;1846;-67
2021/05/13 14:10:25;;;;;;;;;;;19.70;62.80;;;;;;5035992;28;1436;-65
2021/05/13 14:12:51;;;;;;;;;;;19.70;62.80;;;;;;5035715;28;1961;-64
2021/05/13 14:15:16;;;;;;;;;;;19.70;62.80;;;;;;5034489;28;1437;-65
2021/05/13 14:17:42;;;;;;;;;;;19.70;62.80;;;;;;5034876;28;1357;-65
2021/05/13 14:20:08;;;;;;;;;;;19.70;62.80;;;;;;5049735;28;1348;-64
2021/05/13 14:22:33;;;;;;;;;;;19.70;62.80;;;;;;5049345;28;1712;-65
2021/05/13 14:24:59;;;;;;;;;;;19.70;62.80;;;;;;5034684;28;1251;-66
2021/05/13 14:27:24;;;;;;;;;;;19.70;62.80;;;;;;5034365;28;1389;-65
2021/05/13 14:29:50;;;;;;;;;;;19.70;62.80;;;;;;5034581;28;1349;-65
2021/05/13 14:32:15;;;;;;;;;;;19.70;62.80;;;;;;5034441;28;1969;-65
2021/05/13 14:34:41;;;;;;;;;;;19.70;62.80;;;;;;5034593;28;1347;-66